sensor_id;sensor_type;location;lat;lon;timestamp;P1;durP1;ratioP1;P2;durP2;ratioP2
25381;SDS011;16307;42.896;20.874;2022-10-31T00:01:57;13.30;;;4.75;;
25381;SDS011;16307;42.896;20.874;2022-10-31T00:04:25;9.35;;;4.70;;
25381;SDS011;16307;42.896;20.874;2022-10-31T00:06:52;13.95;;;5.55;;
25381;SDS011;16307;42.896;20.874;2022-10-31T00:09:20;10.75;;;4.28;;
25381;SDS011;16307;42.896;20.874;2022-10-31T00:11:47;14.68;;;4.57;;
25381;SDS011;16307;42.896;20.874;2022-10-31T00:14:15;8.10;;;3.90;;
25381;SDS011;16307;42.896;20.874;2022-10-31T00:16:42;8.35;;;4.28;;
25381;SDS011;16307;42.896;20.874;2022-10-31T00:19:10;21.80;;;7.20;;
25381;SDS011;16307;42.896;20.874;2022-10-31T00:21:37;32.92;;;13.32;;
25381;SDS011;16307;42.896;20.874;2022-10-31T00:24:05;28.38;;;13.15;;
25381;SDS011;16307;42.896;20.874;2022-10-31T00:26:32;36.00;;;13.98;;
25381;SDS011;16307;42.896;20.874;2022-10-31T00:29:00;29.38;;;13.00;;
25381;SDS011;16307;42.896;20.874;2022-10-31T00:31:28;30.60;;;14.80;;
25381;SDS011;16307;42.896;20.874;2022-10-31T00:33:57;34.03;;;12.90;;
25381;SDS011;16307;42.896;20.874;2022-10-31T00:36:26;26.13;;;12.18;;
25381;SDS011;16307;42.896;20.874;2022-10-31T00:38:53;29.02;;;12.85;;
25381;SDS011;16307;42.896;20.874;2022-10-31T00:41:21;35.65;;;13.93;;
25381;SDS011;16307;42.896;20.874;2022-10-31T00:43:49;29.95;;;12.80;;
25381;SDS011;16307;42.896;20.874;2022-10-31T00:46:16;25.58;;;11.10;;
25381;SDS011;16307;42.896;20.874;2022-10-31T00:48:44;25.58;;;11.55;;
25381;SDS011;16307;42.896;20.874;2022-10-31T00:51:11;34.92;;;13.50;;
25381;SDS011;16307;42.896;20.874;2022-10-31T00:53:41;33.65;;;13.13;;
25381;SDS011;16307;42.896;20.874;2022-10-31T00:56:08;29.83;;;12.40;;
25381;SDS011;16307;42.896;20.874;2022-10-31T00:58:36;34.80;;;12.43;;
25381;SDS011;16307;42.896;20.874;2022-10-31T01:01:03;25.20;;;11.73;;
25381;SDS011;16307;42.896;20.874;2022-10-31T01:03:33;27.67;;;11.40;;
25381;SDS011;16307;42.896;20.874;2022-10-31T01:11:24;23.05;;;10.35;;
25381;SDS011;16307;42.896;20.874;2022-10-31T01:13:51;23.35;;;10.95;;
25381;SDS011;16307;42.896;20.874;2022-10-31T01:16:21;29.00;;;10.85;;
25381;SDS011;16307;42.896;20.874;2022-10-31T01:18:50;27.63;;;12.00;;
25381;SDS011;16307;42.896;20.874;2022-10-31T01:21:20;34.47;;;12.50;;
25381;SDS011;16307;42.896;20.874;2022-10-31T01:23:49;34.47;;;13.80;;
25381;SDS011;16307;42.896;20.874;2022-10-31T01:28:50;25.77;;;11.52;;
25381;SDS011;16307;42.896;20.874;2022-10-31T01:31:20;28.02;;;12.18;;
25381;SDS011;16307;42.896;20.874;2022-10-31T01:33:49;30.23;;;12.55;;
25381;SDS011;16307;42.896;20.874;2022-10-31T01:36:28;32.53;;;12.43;;
25381;SDS011;16307;42.896;20.874;2022-10-31T01:38:58;29.73;;;12.23;;
25381;SDS011;16307;42.896;20.874;2022-10-31T01:41:28;31.13;;;12.82;;
25381;SDS011;16307;42.896;20.874;2022-10-31T01:46:59;23.95;;;10.20;;
25381;SDS011;16307;42.896;20.874;2022-10-31T01:52:07;26.55;;;10.50;;
25381;SDS011;16307;42.896;20.874;2022-10-31T01:57:07;36.15;;;13.52;;
25381;SDS011;16307;42.896;20.874;2022-10-31T01:59:36;70.10;;;25.35;;
25381;SDS011;16307;42.896;20.874;2022-10-31T02:02:09;99.55;;;35.50;;
25381;SDS011;16307;42.896;20.874;2022-10-31T02:04:37;272.70;;;87.47;;
25381;SDS011;16307;42.896;20.874;2022-10-31T02:07:16;220.80;;;73.80;;
25381;SDS011;16307;42.896;20.874;2022-10-31T02:09:48;225.68;;;73.32;;
25381;SDS011;16307;42.896;20.874;2022-10-31T02:12:16;163.70;;;58.15;;
25381;SDS011;16307;42.896;20.874;2022-10-31T02:14:44;111.85;;;44.33;;
25381;SDS011;16307;42.896;20.874;2022-10-31T02:17:13;96.45;;;41.08;;
25381;SDS011;16307;42.896;20.874;2022-10-31T02:19:56;77.25;;;31.65;;
25381;SDS011;16307;42.896;20.874;2022-10-31T02:22:40;77.78;;;32.55;;
25381;SDS011;16307;42.896;20.874;2022-10-31T02:33:28;35.95;;;15.75;;
25381;SDS011;16307;42.896;20.874;2022-10-31T02:36:04;43.58;;;17.48;;
25381;SDS011;16307;42.896;20.874;2022-10-31T02:41:43;31.85;;;13.68;;
25381;SDS011;16307;42.896;20.874;2022-10-31T02:47:03;24.10;;;9.75;;
25381;SDS011;16307;42.896;20.874;2022-10-31T02:49:34;26.42;;;10.88;;
25381;SDS011;16307;42.896;20.874;2022-10-31T02:52:18;36.38;;;12.90;;
25381;SDS011;16307;42.896;20.874;2022-10-31T02:55:39;29.25;;;10.77;;
25381;SDS011;16307;42.896;20.874;2022-10-31T02:58:08;27.05;;;8.30;;
25381;SDS011;16307;42.896;20.874;2022-10-31T03:03:33;20.58;;;9.38;;
25381;SDS011;16307;42.896;20.874;2022-10-31T03:06:20;21.45;;;10.32;;
25381;SDS011;16307;42.896;20.874;2022-10-31T03:11:40;108.68;;;40.42;;
25381;SDS011;16307;42.896;20.874;2022-10-31T03:14:14;143.93;;;60.45;;
25381;SDS011;16307;42.896;20.874;2022-10-31T03:16:53;128.00;;;51.75;;
25381;SDS011;16307;42.896;20.874;2022-10-31T03:19:23;46.15;;;20.38;;
25381;SDS011;16307;42.896;20.874;2022-10-31T03:21:55;53.20;;;23.98;;
25381;SDS011;16307;42.896;20.874;2022-10-31T03:24:54;25.13;;;10.23;;
25381;SDS011;16307;42.896;20.874;2022-10-31T03:27:23;20.45;;;9.07;;
25381;SDS011;16307;42.896;20.874;2022-10-31T03:29:54;15.15;;;5.78;;
25381;SDS011;16307;42.896;20.874;2022-10-31T03:32:24;13.02;;;6.40;;
25381;SDS011;16307;42.896;20.874;2022-10-31T03:34:53;24.13;;;10.65;;
25381;SDS011;16307;42.896;20.874;2022-10-31T03:37:23;33.20;;;14.75;;
25381;SDS011;16307;42.896;20.874;2022-10-31T03:39:52;31.20;;;13.05;;
25381;SDS011;16307;42.896;20.874;2022-10-31T03:42:24;26.70;;;11.65;;
25381;SDS011;16307;42.896;20.874;2022-10-31T03:45:03;32.00;;;12.82;;
25381;SDS011;16307;42.896;20.874;2022-10-31T03:47:33;23.73;;;12.20;;
25381;SDS011;16307;42.896;20.874;2022-10-31T03:50:02;26.58;;;12.07;;
25381;SDS011;16307;42.896;20.874;2022-10-31T03:52:34;25.08;;;11.90;;
25381;SDS011;16307;42.896;20.874;2022-10-31T03:58:06;30.88;;;13.18;;
25381;SDS011;16307;42.896;20.874;2022-10-31T04:00:37;28.08;;;13.00;;
25381;SDS011;16307;42.896;20.874;2022-10-31T04:03:22;25.95;;;11.70;;
25381;SDS011;16307;42.896;20.874;2022-10-31T04:05:55;31.10;;;12.38;;
25381;SDS011;16307;42.896;20.874;2022-10-31T04:08:24;28.27;;;12.85;;
25381;SDS011;16307;42.896;20.874;2022-10-31T04:10:55;27.92;;;12.15;;
25381;SDS011;16307;42.896;20.874;2022-10-31T04:13:27;29.27;;;12.07;;
25381;SDS011;16307;42.896;20.874;2022-10-31T04:16:16;23.23;;;11.68;;
25381;SDS011;16307;42.896;20.874;2022-10-31T04:18:44;23.80;;;11.95;;
25381;SDS011;16307;42.896;20.874;2022-10-31T04:21:12;30.05;;;11.48;;
25381;SDS011;16307;42.896;20.874;2022-10-31T04:23:39;24.02;;;11.68;;
25381;SDS011;16307;42.896;20.874;2022-10-31T04:26:14;25.83;;;10.15;;
25381;SDS011;16307;42.896;20.874;2022-10-31T04:28:43;23.02;;;10.48;;
25381;SDS011;16307;42.896;20.874;2022-10-31T04:31:12;26.55;;;10.68;;
25381;SDS011;16307;42.896;20.874;2022-10-31T04:33:41;21.35;;;10.73;;
25381;SDS011;16307;42.896;20.874;2022-10-31T04:36:08;26.77;;;12.30;;
25381;SDS011;16307;42.896;20.874;2022-10-31T04:38:37;25.25;;;10.98;;
25381;SDS011;16307;42.896;20.874;2022-10-31T04:41:13;28.48;;;9.55;;
25381;SDS011;16307;42.896;20.874;2022-10-31T04:43:57;20.40;;;9.10;;
25381;SDS011;16307;42.896;20.874;2022-10-31T04:46:27;26.67;;;10.15;;
25381;SDS011;16307;42.896;20.874;2022-10-31T04:48:56;17.20;;;7.43;;
25381;SDS011;16307;42.896;20.874;2022-10-31T04:51:24;15.63;;;6.90;;
25381;SDS011;16307;42.896;20.874;2022-10-31T04:53:52;21.85;;;8.60;;
25381;SDS011;16307;42.896;20.874;2022-10-31T04:59:09;23.58;;;10.73;;
25381;SDS011;16307;42.896;20.874;2022-10-31T05:01:48;36.20;;;10.82;;
25381;SDS011;16307;42.896;20.874;2022-10-31T05:06:48;28.88;;;12.70;;
25381;SDS011;16307;42.896;20.874;2022-10-31T05:09:16;32.85;;;11.60;;
25381;SDS011;16307;42.896;20.874;2022-10-31T05:11:44;28.10;;;12.18;;
25381;SDS011;16307;42.896;20.874;2022-10-31T05:14:31;21.55;;;9.82;;
25381;SDS011;16307;42.896;20.874;2022-10-31T05:17:34;24.73;;;12.15;;
25381;SDS011;16307;42.896;20.874;2022-10-31T05:20:21;24.60;;;10.75;;
25381;SDS011;16307;42.896;20.874;2022-10-31T05:23:02;33.03;;;11.15;;
25381;SDS011;16307;42.896;20.874;2022-10-31T05:25:30;23.67;;;10.98;;
25381;SDS011;16307;42.896;20.874;2022-10-31T05:28:01;29.88;;;11.77;;
25381;SDS011;16307;42.896;20.874;2022-10-31T05:30:29;22.48;;;10.82;;
25381;SDS011;16307;42.896;20.874;2022-10-31T05:32:58;27.58;;;10.93;;
25381;SDS011;16307;42.896;20.874;2022-10-31T05:35:45;29.35;;;11.82;;
25381;SDS011;16307;42.896;20.874;2022-10-31T05:38:33;37.70;;;13.75;;
25381;SDS011;16307;42.896;20.874;2022-10-31T05:41:10;35.78;;;15.35;;
25381;SDS011;16307;42.896;20.874;2022-10-31T05:43:41;28.10;;;13.83;;
25381;SDS011;16307;42.896;20.874;2022-10-31T05:46:09;36.25;;;15.10;;
25381;SDS011;16307;42.896;20.874;2022-10-31T05:49:09;29.55;;;14.75;;
25381;SDS011;16307;42.896;20.874;2022-10-31T05:51:55;37.70;;;17.10;;
25381;SDS011;16307;42.896;20.874;2022-10-31T05:54:31;37.70;;;18.00;;
25381;SDS011;16307;42.896;20.874;2022-10-31T05:56:59;32.97;;;16.90;;
25381;SDS011;16307;42.896;20.874;2022-10-31T05:59:26;34.83;;;16.77;;
25381;SDS011;16307;42.896;20.874;2022-10-31T06:01:55;34.70;;;16.88;;
25381;SDS011;16307;42.896;20.874;2022-10-31T06:04:42;31.58;;;16.38;;
25381;SDS011;16307;42.896;20.874;2022-10-31T06:07:10;35.80;;;17.23;;
25381;SDS011;16307;42.896;20.874;2022-10-31T06:09:37;32.45;;;15.00;;
25381;SDS011;16307;42.896;20.874;2022-10-31T06:12:06;39.05;;;17.30;;
25381;SDS011;16307;42.896;20.874;2022-10-31T06:14:57;31.73;;;13.43;;
25381;SDS011;16307;42.896;20.874;2022-10-31T06:17:24;24.30;;;12.77;;
25381;SDS011;16307;42.896;20.874;2022-10-31T06:20:10;24.90;;;12.98;;
25381;SDS011;16307;42.896;20.874;2022-10-31T06:22:50;26.95;;;12.18;;
25381;SDS011;16307;42.896;20.874;2022-10-31T06:25:18;33.63;;;12.38;;
25381;SDS011;16307;42.896;20.874;2022-10-31T06:27:48;33.58;;;12.43;;
25381;SDS011;16307;42.896;20.874;2022-10-31T06:30:18;28.35;;;12.98;;
25381;SDS011;16307;42.896;20.874;2022-10-31T06:32:46;30.60;;;13.65;;
25381;SDS011;16307;42.896;20.874;2022-10-31T06:35:13;29.83;;;12.35;;
25381;SDS011;16307;42.896;20.874;2022-10-31T06:37:42;34.70;;;12.80;;
25381;SDS011;16307;42.896;20.874;2022-10-31T06:40:26;37.95;;;13.98;;
25381;SDS011;16307;42.896;20.874;2022-10-31T06:43:17;31.17;;;13.52;;
25381;SDS011;16307;42.896;20.874;2022-10-31T06:45:45;41.20;;;14.52;;
25381;SDS011;16307;42.896;20.874;2022-10-31T06:48:12;39.55;;;13.25;;
25381;SDS011;16307;42.896;20.874;2022-10-31T06:51:02;31.85;;;12.02;;
25381;SDS011;16307;42.896;20.874;2022-10-31T06:53:31;25.83;;;11.20;;
25381;SDS011;16307;42.896;20.874;2022-10-31T06:55:59;26.27;;;11.10;;
25381;SDS011;16307;42.896;20.874;2022-10-31T06:58:27;30.52;;;10.68;;
25381;SDS011;16307;42.896;20.874;2022-10-31T07:00:59;23.30;;;10.52;;
25381;SDS011;16307;42.896;20.874;2022-10-31T07:03:27;25.17;;;10.10;;
25381;SDS011;16307;42.896;20.874;2022-10-31T07:05:56;25.40;;;9.75;;
25381;SDS011;16307;42.896;20.874;2022-10-31T07:08:24;27.52;;;11.10;;
25381;SDS011;16307;42.896;20.874;2022-10-31T07:10:53;27.05;;;10.85;;
25381;SDS011;16307;42.896;20.874;2022-10-31T07:13:24;24.15;;;11.55;;
25381;SDS011;16307;42.896;20.874;2022-10-31T07:16:05;32.70;;;11.10;;
25381;SDS011;16307;42.896;20.874;2022-10-31T07:18:35;27.88;;;11.55;;
25381;SDS011;16307;42.896;20.874;2022-10-31T07:21:03;34.17;;;10.82;;
25381;SDS011;16307;42.896;20.874;2022-10-31T07:23:31;23.33;;;9.95;;
25381;SDS011;16307;42.896;20.874;2022-10-31T07:26:25;24.42;;;9.65;;
25381;SDS011;16307;42.896;20.874;2022-10-31T07:28:54;23.50;;;9.15;;
25381;SDS011;16307;42.896;20.874;2022-10-31T07:31:24;27.90;;;8.80;;
25381;SDS011;16307;42.896;20.874;2022-10-31T07:33:57;22.58;;;9.32;;
25381;SDS011;16307;42.896;20.874;2022-10-31T07:36:27;21.40;;;8.60;;
25381;SDS011;16307;42.896;20.874;2022-10-31T07:39:00;22.75;;;8.75;;
25381;SDS011;16307;42.896;20.874;2022-10-31T07:41:31;23.90;;;8.88;;
25381;SDS011;16307;42.896;20.874;2022-10-31T07:43:58;18.92;;;10.25;;
25381;SDS011;16307;42.896;20.874;2022-10-31T07:46:29;26.10;;;8.88;;
25381;SDS011;16307;42.896;20.874;2022-10-31T07:49:15;22.60;;;9.00;;
25381;SDS011;16307;42.896;20.874;2022-10-31T07:51:43;27.75;;;9.23;;
25381;SDS011;16307;42.896;20.874;2022-10-31T07:54:31;22.25;;;9.50;;
25381;SDS011;16307;42.896;20.874;2022-10-31T07:56:58;24.30;;;10.15;;
25381;SDS011;16307;42.896;20.874;2022-10-31T07:59:26;29.27;;;12.18;;
25381;SDS011;16307;42.896;20.874;2022-10-31T08:01:54;22.65;;;11.13;;
25381;SDS011;16307;42.896;20.874;2022-10-31T08:04:30;32.88;;;11.95;;
25381;SDS011;16307;42.896;20.874;2022-10-31T08:07:17;24.00;;;10.88;;
25381;SDS011;16307;42.896;20.874;2022-10-31T08:09:51;27.13;;;10.43;;
25381;SDS011;16307;42.896;20.874;2022-10-31T08:12:23;28.55;;;9.40;;
25381;SDS011;16307;42.896;20.874;2022-10-31T08:14:52;21.25;;;8.80;;
25381;SDS011;16307;42.896;20.874;2022-10-31T08:17:20;31.27;;;9.50;;
25381;SDS011;16307;42.896;20.874;2022-10-31T08:19:54;28.95;;;10.25;;
25381;SDS011;16307;42.896;20.874;2022-10-31T08:22:27;33.35;;;14.52;;
25381;SDS011;16307;42.896;20.874;2022-10-31T08:24:55;33.42;;;15.45;;
25381;SDS011;16307;42.896;20.874;2022-10-31T08:27:23;28.83;;;13.25;;
25381;SDS011;16307;42.896;20.874;2022-10-31T08:29:50;29.27;;;12.20;;
25381;SDS011;16307;42.896;20.874;2022-10-31T08:32:18;30.27;;;11.02;;
25381;SDS011;16307;42.896;20.874;2022-10-31T08:34:57;26.98;;;10.77;;
25381;SDS011;16307;42.896;20.874;2022-10-31T08:37:43;32.75;;;10.60;;
25381;SDS011;16307;42.896;20.874;2022-10-31T08:40:11;23.92;;;9.77;;
25381;SDS011;16307;42.896;20.874;2022-10-31T08:42:40;34.08;;;9.30;;
25381;SDS011;16307;42.896;20.874;2022-10-31T08:45:07;35.88;;;12.07;;
25381;SDS011;16307;42.896;20.874;2022-10-31T08:47:36;30.92;;;11.60;;
25381;SDS011;16307;42.896;20.874;2022-10-31T08:50:04;32.15;;;9.43;;
25381;SDS011;16307;42.896;20.874;2022-10-31T08:52:31;22.25;;;8.35;;
25381;SDS011;16307;42.896;20.874;2022-10-31T08:55:19;18.17;;;7.63;;
25381;SDS011;16307;42.896;20.874;2022-10-31T08:58:05;25.52;;;8.35;;
25381;SDS011;16307;42.896;20.874;2022-10-31T09:00:40;20.60;;;7.18;;
25381;SDS011;16307;42.896;20.874;2022-10-31T09:03:24;17.88;;;7.53;;
25381;SDS011;16307;42.896;20.874;2022-10-31T09:06:00;20.38;;;7.93;;
25381;SDS011;16307;42.896;20.874;2022-10-31T09:08:30;25.65;;;7.60;;
25381;SDS011;16307;42.896;20.874;2022-10-31T09:11:00;25.38;;;9.65;;
25381;SDS011;16307;42.896;20.874;2022-10-31T09:14:00;19.27;;;7.28;;
25381;SDS011;16307;42.896;20.874;2022-10-31T09:16:28;24.45;;;8.25;;
25381;SDS011;16307;42.896;20.874;2022-10-31T09:18:55;27.60;;;9.30;;
25381;SDS011;16307;42.896;20.874;2022-10-31T09:21:23;25.60;;;9.18;;
25381;SDS011;16307;42.896;20.874;2022-10-31T09:23:52;21.08;;;8.45;;
25381;SDS011;16307;42.896;20.874;2022-10-31T09:26:20;20.23;;;8.20;;
25381;SDS011;16307;42.896;20.874;2022-10-31T09:29:04;18.50;;;7.45;;
25381;SDS011;16307;42.896;20.874;2022-10-31T09:31:32;15.65;;;6.85;;
25381;SDS011;16307;42.896;20.874;2022-10-31T09:34:12;21.65;;;7.40;;
25381;SDS011;16307;42.896;20.874;2022-10-31T09:36:55;17.70;;;6.32;;
25381;SDS011;16307;42.896;20.874;2022-10-31T09:39:24;16.25;;;7.18;;
25381;SDS011;16307;42.896;20.874;2022-10-31T09:44:40;19.92;;;8.20;;
25381;SDS011;16307;42.896;20.874;2022-10-31T09:50:20;23.75;;;7.40;;
25381;SDS011;16307;42.896;20.874;2022-10-31T09:53:00;37.17;;;9.20;;
25381;SDS011;16307;42.896;20.874;2022-10-31T09:58:14;35.00;;;7.30;;
25381;SDS011;16307;42.896;20.874;2022-10-31T10:00:51;25.60;;;7.18;;
25381;SDS011;16307;42.896;20.874;2022-10-31T10:06:12;30.05;;;10.73;;
25381;SDS011;16307;42.896;20.874;2022-10-31T10:09:00;36.35;;;14.02;;
25381;SDS011;16307;42.896;20.874;2022-10-31T10:14:32;36.90;;;13.00;;
25381;SDS011;16307;42.896;20.874;2022-10-31T10:28:17;25.30;;;7.88;;
25381;SDS011;16307;42.896;20.874;2022-10-31T10:30:49;19.95;;;6.55;;
25381;SDS011;16307;42.896;20.874;2022-10-31T10:33:36;16.57;;;6.57;;
25381;SDS011;16307;42.896;20.874;2022-10-31T10:36:53;25.80;;;7.72;;
25381;SDS011;16307;42.896;20.874;2022-10-31T10:39:01;27.20;;;7.95;;
25381;SDS011;16307;42.896;20.874;2022-10-31T10:41:32;26.67;;;8.13;;
25381;SDS011;16307;42.896;20.874;2022-10-31T10:44:00;18.70;;;7.60;;
25381;SDS011;16307;42.896;20.874;2022-10-31T10:51:58;31.10;;;8.60;;
25381;SDS011;16307;42.896;20.874;2022-10-31T11:00:23;24.65;;;8.73;;
25381;SDS011;16307;42.896;20.874;2022-10-31T11:02:55;20.02;;;6.82;;
25381;SDS011;16307;42.896;20.874;2022-10-31T11:05:42;22.13;;;7.30;;
25381;SDS011;16307;42.896;20.874;2022-10-31T11:08:32;20.23;;;7.90;;
25381;SDS011;16307;42.896;20.874;2022-10-31T11:13:55;26.08;;;8.68;;
25381;SDS011;16307;42.896;20.874;2022-10-31T11:16:35;17.58;;;6.80;;
25381;SDS011;16307;42.896;20.874;2022-10-31T11:19:29;18.90;;;8.82;;
25381;SDS011;16307;42.896;20.874;2022-10-31T11:22:04;22.23;;;8.27;;
25381;SDS011;16307;42.896;20.874;2022-10-31T11:24:40;17.90;;;7.40;;
25381;SDS011;16307;42.896;20.874;2022-10-31T11:27:16;17.10;;;6.80;;
25381;SDS011;16307;42.896;20.874;2022-10-31T11:29:47;16.65;;;6.10;;
25381;SDS011;16307;42.896;20.874;2022-10-31T11:32:22;22.90;;;6.70;;
25381;SDS011;16307;42.896;20.874;2022-10-31T11:34:54;22.83;;;6.15;;
25381;SDS011;16307;42.896;20.874;2022-10-31T11:37:25;18.20;;;6.90;;
25381;SDS011;16307;42.896;20.874;2022-10-31T11:39:55;30.05;;;7.25;;
25381;SDS011;16307;42.896;20.874;2022-10-31T11:42:25;18.52;;;7.10;;
25381;SDS011;16307;42.896;20.874;2022-10-31T11:44:54;24.40;;;7.68;;
25381;SDS011;16307;42.896;20.874;2022-10-31T11:47:25;23.30;;;7.78;;
25381;SDS011;16307;42.896;20.874;2022-10-31T11:49:54;22.65;;;7.72;;
25381;SDS011;16307;42.896;20.874;2022-10-31T11:52:27;26.23;;;7.60;;
25381;SDS011;16307;42.896;20.874;2022-10-31T11:55:13;17.50;;;6.78;;
25381;SDS011;16307;42.896;20.874;2022-10-31T11:57:45;24.67;;;8.43;;
25381;SDS011;16307;42.896;20.874;2022-10-31T12:00:27;16.05;;;6.38;;
25381;SDS011;16307;42.896;20.874;2022-10-31T12:06:12;14.30;;;5.60;;
25381;SDS011;16307;42.896;20.874;2022-10-31T12:08:46;19.90;;;5.75;;
25381;SDS011;16307;42.896;20.874;2022-10-31T12:19:16;14.35;;;5.43;;
25381;SDS011;16307;42.896;20.874;2022-10-31T12:22:06;18.65;;;5.72;;
25381;SDS011;16307;42.896;20.874;2022-10-31T12:35:40;13.65;;;5.30;;
25381;SDS011;16307;42.896;20.874;2022-10-31T12:41:14;15.30;;;5.90;;
25381;SDS011;16307;42.896;20.874;2022-10-31T12:46:25;25.65;;;5.80;;
25381;SDS011;16307;42.896;20.874;2022-10-31T12:52:00;21.60;;;6.40;;
25381;SDS011;16307;42.896;20.874;2022-10-31T12:54:50;15.38;;;5.03;;
25381;SDS011;16307;42.896;20.874;2022-10-31T12:57:29;15.00;;;5.57;;
25381;SDS011;16307;42.896;20.874;2022-10-31T13:00:07;16.83;;;5.35;;
25381;SDS011;16307;42.896;20.874;2022-10-31T13:03:03;15.43;;;5.35;;
25381;SDS011;16307;42.896;20.874;2022-10-31T13:05:37;15.48;;;5.13;;
25381;SDS011;16307;42.896;20.874;2022-10-31T13:13:47;21.33;;;5.88;;
25381;SDS011;16307;42.896;20.874;2022-10-31T13:16:31;11.40;;;4.78;;
25381;SDS011;16307;42.896;20.874;2022-10-31T13:21:50;9.55;;;4.75;;
25381;SDS011;16307;42.896;20.874;2022-10-31T13:24:21;14.85;;;4.95;;
25381;SDS011;16307;42.896;20.874;2022-10-31T13:26:59;10.45;;;4.78;;
25381;SDS011;16307;42.896;20.874;2022-10-31T13:29:33;17.70;;;5.05;;
25381;SDS011;16307;42.896;20.874;2022-10-31T13:32:07;18.02;;;6.18;;
25381;SDS011;16307;42.896;20.874;2022-10-31T13:34:49;14.98;;;5.53;;
25381;SDS011;16307;42.896;20.874;2022-10-31T13:45:35;18.50;;;8.77;;
25381;SDS011;16307;42.896;20.874;2022-10-31T13:50:33;16.15;;;6.68;;
25381;SDS011;16307;42.896;20.874;2022-10-31T13:55:45;25.77;;;6.05;;
25381;SDS011;16307;42.896;20.874;2022-10-31T14:03:26;16.77;;;6.82;;
25381;SDS011;16307;42.896;20.874;2022-10-31T14:06:15;23.05;;;7.07;;
25381;SDS011;16307;42.896;20.874;2022-10-31T14:08:47;26.05;;;6.50;;
25381;SDS011;16307;42.896;20.874;2022-10-31T14:11:24;20.40;;;6.65;;
25381;SDS011;16307;42.896;20.874;2022-10-31T14:14:02;22.90;;;6.13;;
25381;SDS011;16307;42.896;20.874;2022-10-31T14:16:30;21.02;;;6.68;;
25381;SDS011;16307;42.896;20.874;2022-10-31T14:21:36;21.77;;;7.20;;
25381;SDS011;16307;42.896;20.874;2022-10-31T14:24:16;15.40;;;7.30;;
25381;SDS011;16307;42.896;20.874;2022-10-31T14:27:03;21.60;;;7.32;;
25381;SDS011;16307;42.896;20.874;2022-10-31T14:29:46;17.05;;;8.02;;
25381;SDS011;16307;42.896;20.874;2022-10-31T14:40:50;20.17;;;7.85;;
25381;SDS011;16307;42.896;20.874;2022-10-31T14:43:34;23.40;;;8.07;;
25381;SDS011;16307;42.896;20.874;2022-10-31T14:51:55;29.00;;;12.82;;
25381;SDS011;16307;42.896;20.874;2022-10-31T14:54:30;22.13;;;8.35;;
25381;SDS011;16307;42.896;20.874;2022-10-31T14:57:05;19.45;;;7.13;;
25381;SDS011;16307;42.896;20.874;2022-10-31T14:59:35;29.70;;;7.05;;
25381;SDS011;16307;42.896;20.874;2022-10-31T15:02:13;31.13;;;6.18;;
25381;SDS011;16307;42.896;20.874;2022-10-31T15:04:44;17.15;;;6.55;;
25381;SDS011;16307;42.896;20.874;2022-10-31T15:07:21;20.83;;;7.28;;
25381;SDS011;16307;42.896;20.874;2022-10-31T15:10:36;23.42;;;8.80;;
25381;SDS011;16307;42.896;20.874;2022-10-31T15:12:48;22.42;;;7.72;;
25381;SDS011;16307;42.896;20.874;2022-10-31T15:20:22;26.60;;;8.88;;
25381;SDS011;16307;42.896;20.874;2022-10-31T15:22:51;19.67;;;7.07;;
25381;SDS011;16307;42.896;20.874;2022-10-31T15:25:23;16.20;;;5.22;;
25381;SDS011;16307;42.896;20.874;2022-10-31T15:27:52;32.83;;;7.95;;
25381;SDS011;16307;42.896;20.874;2022-10-31T15:30:24;22.63;;;6.78;;
25381;SDS011;16307;42.896;20.874;2022-10-31T15:32:53;24.52;;;6.85;;
25381;SDS011;16307;42.896;20.874;2022-10-31T15:35:28;30.55;;;6.47;;
25381;SDS011;16307;42.896;20.874;2022-10-31T15:37:57;27.90;;;6.10;;
25381;SDS011;16307;42.896;20.874;2022-10-31T15:40:27;16.88;;;5.43;;
25381;SDS011;16307;42.896;20.874;2022-10-31T15:43:02;16.35;;;4.88;;
25381;SDS011;16307;42.896;20.874;2022-10-31T15:45:31;18.02;;;4.95;;
25381;SDS011;16307;42.896;20.874;2022-10-31T15:47:59;340.67;;;304.70;;
25381;SDS011;16307;42.896;20.874;2022-10-31T15:50:36;41.28;;;30.13;;
25381;SDS011;16307;42.896;20.874;2022-10-31T15:53:13;22.00;;;11.50;;
25381;SDS011;16307;42.896;20.874;2022-10-31T15:55:54;22.17;;;8.85;;
25381;SDS011;16307;42.896;20.874;2022-10-31T15:58:23;24.17;;;9.40;;
25381;SDS011;16307;42.896;20.874;2022-10-31T16:01:05;21.63;;;9.18;;
25381;SDS011;16307;42.896;20.874;2022-10-31T16:03:33;15.88;;;6.18;;
25381;SDS011;16307;42.896;20.874;2022-10-31T16:06:02;19.25;;;6.15;;
25381;SDS011;16307;42.896;20.874;2022-10-31T16:08:32;16.60;;;5.00;;
25381;SDS011;16307;42.896;20.874;2022-10-31T16:11:13;19.10;;;5.55;;
25381;SDS011;16307;42.896;20.874;2022-10-31T16:14:01;24.95;;;7.18;;
25381;SDS011;16307;42.896;20.874;2022-10-31T16:16:44;29.85;;;6.63;;
25381;SDS011;16307;42.896;20.874;2022-10-31T16:19:25;17.02;;;5.82;;
25381;SDS011;16307;42.896;20.874;2022-10-31T16:22:08;18.70;;;6.38;;
25381;SDS011;16307;42.896;20.874;2022-10-31T16:24:44;20.00;;;6.63;;
25381;SDS011;16307;42.896;20.874;2022-10-31T16:27:32;21.45;;;6.47;;
25381;SDS011;16307;42.896;20.874;2022-10-31T16:30:02;16.83;;;5.35;;
25381;SDS011;16307;42.896;20.874;2022-10-31T16:32:33;22.65;;;6.55;;
25381;SDS011;16307;42.896;20.874;2022-10-31T16:37:42;14.32;;;4.90;;
25381;SDS011;16307;42.896;20.874;2022-10-31T16:40:13;22.83;;;5.07;;
25381;SDS011;16307;42.896;20.874;2022-10-31T16:42:42;20.00;;;5.70;;
25381;SDS011;16307;42.896;20.874;2022-10-31T16:47:45;18.63;;;6.55;;
25381;SDS011;16307;42.896;20.874;2022-10-31T16:50:21;37.10;;;11.20;;
25381;SDS011;16307;42.896;20.874;2022-10-31T16:52:51;82.05;;;19.52;;
25381;SDS011;16307;42.896;20.874;2022-10-31T16:55:46;85.90;;;19.52;;
25381;SDS011;16307;42.896;20.874;2022-10-31T16:58:19;74.70;;;21.60;;
25381;SDS011;16307;42.896;20.874;2022-10-31T17:00:49;85.75;;;23.33;;
25381;SDS011;16307;42.896;20.874;2022-10-31T17:03:18;75.68;;;19.02;;
25381;SDS011;16307;42.896;20.874;2022-10-31T17:05:46;78.90;;;22.67;;
25381;SDS011;16307;42.896;20.874;2022-10-31T17:08:14;72.13;;;18.70;;
25381;SDS011;16307;42.896;20.874;2022-10-31T17:10:42;60.97;;;17.58;;
25381;SDS011;16307;42.896;20.874;2022-10-31T17:13:16;47.72;;;13.80;;
25381;SDS011;16307;42.896;20.874;2022-10-31T17:15:47;32.15;;;10.13;;
25381;SDS011;16307;42.896;20.874;2022-10-31T17:18:16;30.30;;;10.88;;
25381;SDS011;16307;42.896;20.874;2022-10-31T17:20:50;34.58;;;11.27;;
25381;SDS011;16307;42.896;20.874;2022-10-31T17:23:23;27.58;;;12.18;;
25381;SDS011;16307;42.896;20.874;2022-10-31T17:25:51;30.48;;;11.27;;
25381;SDS011;16307;42.896;20.874;2022-10-31T17:28:18;32.35;;;10.35;;
25381;SDS011;16307;42.896;20.874;2022-10-31T17:30:46;20.98;;;7.68;;
25381;SDS011;16307;42.896;20.874;2022-10-31T17:33:14;26.65;;;8.32;;
25381;SDS011;16307;42.896;20.874;2022-10-31T17:35:43;21.50;;;7.53;;
25381;SDS011;16307;42.896;20.874;2022-10-31T17:38:11;19.02;;;7.38;;
25381;SDS011;16307;42.896;20.874;2022-10-31T17:40:39;25.08;;;8.65;;
25381;SDS011;16307;42.896;20.874;2022-10-31T17:43:10;31.52;;;9.48;;